Impacts TAF Board INFO
FOR SITUATIONAL AWARENESS. NOT TO BE USED FOR FLIGHT PLANNING PURPOSES.
IDs:

KLAX - Los Angeles Intl, CA, US

Issued at 0259 UTC 18 Dec 2017
Updated at 0307 UTC 18 Dec 2017
Potential Impact None Slight Moderate High
Time0253Z 18/04Z 18/05Z 18/06Z 18/07Z 18/08Z 18/09Z 18/10Z 18/11Z 18/12Z 18/13Z 18/14Z 18/15Z 18/16Z>>
Type OBS PRVL PRVL PRVL PRVL PRVL PRVL PRVL PRVL PRVL PRVL PRVL PRVL PRVL
VIS 10 >6 >6 >6 >6 >6 >6 >6 >6 >6 >6 >6 >6 >6
CIG -- -- -- -- -- -- -- -- -- -- -- -- -- --
Cover FEW SKC SKC SKC SKC SKC SKC SKC SKC SKC SKC SKC SKC SKC
FltCat VFR VFR VFR VFR VFR VFR VFR VFR VFR VFR VFR VFR VFR VFR
WX -- -- -- -- -- -- -- -- -- -- -- -- -- --
WDir 360 330 VRB VRB VRB VRB 50 50 50 50 50 50 50 50
WSpd 6 8 3 3 3 3 5 5 5 5 5 5 5 5
WGst -- -- -- -- -- -- -- -- -- -- -- -- -- --

Raw TAF
KLAX 180259Z 1803/1906 33008KT P6SM SKC
  FM180500 VRB03KT P6SM SKC
  FM180900 05005KT P6SM SKC
  FM182000 26008KT P6SM SKC
  FM190400 VRB03KT P6SM SKC


Raw METAR
KLAX 180253Z 36006KT 10SM FEW200 18/M06 A3000 RMK AO2 SLP156 T01781056 51023
KLAX 180153Z 00000KT 10SM FEW200 19/M06 A2997 RMK AO2 SLP148 T01891056
KLAX 180053Z 34004KT 10SM FEW200 22/M06 A2995 RMK AO2 SLP141 T02171056

METAR Board
Radar Display
Forecast Discussion

FOR SITUATIONAL AWARENESS. NOT TO BE USED FOR FLIGHT PLANNING PURPOSES.